sensor_id;sensor_type;location;lat;lon;timestamp;P1;durP1;ratioP1;P2;durP2;ratioP2
45806;SDS011;31507;51.494;7.518;2022-10-22T00:02:20;9.07;;;2.90;;
45806;SDS011;31507;51.494;7.518;2022-10-22T00:04:46;12.68;;;2.63;;
45806;SDS011;31507;51.494;7.518;2022-10-22T00:07:13;13.52;;;3.00;;
45806;SDS011;31507;51.494;7.518;2022-10-22T00:09:39;13.23;;;2.80;;
45806;SDS011;31507;51.494;7.518;2022-10-22T00:12:05;14.90;;;3.30;;
45806;SDS011;31507;51.494;7.518;2022-10-22T00:14:30;5.70;;;3.13;;
45806;SDS011;31507;51.494;7.518;2022-10-22T00:16:56;10.35;;;3.03;;
45806;SDS011;31507;51.494;7.518;2022-10-22T00:19:25;5.85;;;2.80;;
45806;SDS011;31507;51.494;7.518;2022-10-22T00:21:51;12.27;;;3.28;;
45806;SDS011;31507;51.494;7.518;2022-10-22T00:24:17;7.35;;;2.75;;
45806;SDS011;31507;51.494;7.518;2022-10-22T00:26:42;7.63;;;3.13;;
45806;SDS011;31507;51.494;7.518;2022-10-22T00:29:08;12.80;;;3.72;;
45806;SDS011;31507;51.494;7.518;2022-10-22T00:31:34;6.97;;;3.10;;
45806;SDS011;31507;51.494;7.518;2022-10-22T00:33:59;12.07;;;3.35;;
45806;SDS011;31507;51.494;7.518;2022-10-22T00:36:25;12.25;;;3.50;;
45806;SDS011;31507;51.494;7.518;2022-10-22T00:38:52;12.73;;;3.10;;
45806;SDS011;31507;51.494;7.518;2022-10-22T00:41:18;4.97;;;2.58;;
45806;SDS011;31507;51.494;7.518;2022-10-22T00:43:54;12.18;;;3.53;;
45806;SDS011;31507;51.494;7.518;2022-10-22T00:46:27;12.48;;;3.42;;
45806;SDS011;31507;51.494;7.518;2022-10-22T00:48:54;7.72;;;3.00;;
45806;SDS011;31507;51.494;7.518;2022-10-22T00:51:23;13.05;;;3.50;;
45806;SDS011;31507;51.494;7.518;2022-10-22T00:53:53;8.80;;;3.25;;
45806;SDS011;31507;51.494;7.518;2022-10-22T00:56:21;11.07;;;3.83;;
45806;SDS011;31507;51.494;7.518;2022-10-22T00:58:52;15.23;;;3.47;;
45806;SDS011;31507;51.494;7.518;2022-10-22T01:01:21;9.23;;;3.40;;
45806;SDS011;31507;51.494;7.518;2022-10-22T01:03:50;9.35;;;3.50;;
45806;SDS011;31507;51.494;7.518;2022-10-22T01:06:21;13.45;;;3.35;;
45806;SDS011;31507;51.494;7.518;2022-10-22T01:11:54;9.73;;;3.03;;
45806;SDS011;31507;51.494;7.518;2022-10-22T01:17:19;13.00;;;3.50;;
45806;SDS011;31507;51.494;7.518;2022-10-22T01:24:58;10.52;;;3.65;;
45806;SDS011;31507;51.494;7.518;2022-10-22T01:30:41;8.95;;;3.50;;
45806;SDS011;31507;51.494;7.518;2022-10-22T01:33:09;11.20;;;3.30;;
45806;SDS011;31507;51.494;7.518;2022-10-22T01:35:40;16.27;;;4.00;;
45806;SDS011;31507;51.494;7.518;2022-10-22T01:38:09;15.98;;;3.70;;
45806;SDS011;31507;51.494;7.518;2022-10-22T01:40:38;9.35;;;3.40;;
45806;SDS011;31507;51.494;7.518;2022-10-22T01:43:06;10.77;;;3.33;;
45806;SDS011;31507;51.494;7.518;2022-10-22T01:45:35;10.27;;;3.63;;
45806;SDS011;31507;51.494;7.518;2022-10-22T02:04:39;9.60;;;3.83;;
45806;SDS011;31507;51.494;7.518;2022-10-22T02:07:13;14.05;;;3.95;;
45806;SDS011;31507;51.494;7.518;2022-10-22T02:09:41;17.65;;;5.07;;
45806;SDS011;31507;51.494;7.518;2022-10-22T02:12:07;18.23;;;5.05;;
45806;SDS011;31507;51.494;7.518;2022-10-22T02:14:35;13.52;;;4.63;;
45806;SDS011;31507;51.494;7.518;2022-10-22T02:17:03;11.95;;;4.05;;
45806;SDS011;31507;51.494;7.518;2022-10-22T02:19:40;16.55;;;5.05;;
45806;SDS011;31507;51.494;7.518;2022-10-22T02:22:29;11.15;;;4.72;;
45806;SDS011;31507;51.494;7.518;2022-10-22T02:24:55;13.30;;;4.75;;
45806;SDS011;31507;51.494;7.518;2022-10-22T02:27:31;11.73;;;5.53;;
45806;SDS011;31507;51.494;7.518;2022-10-22T02:30:07;10.75;;;5.18;;
45806;SDS011;31507;51.494;7.518;2022-10-22T02:32:41;17.75;;;4.95;;
45806;SDS011;31507;51.494;7.518;2022-10-22T02:35:18;12.23;;;5.70;;
45806;SDS011;31507;51.494;7.518;2022-10-22T02:37:46;20.52;;;5.90;;
45806;SDS011;31507;51.494;7.518;2022-10-22T02:40:13;14.13;;;5.50;;
45806;SDS011;31507;51.494;7.518;2022-10-22T02:42:39;16.00;;;6.72;;
45806;SDS011;31507;51.494;7.518;2022-10-22T02:45:06;21.30;;;5.88;;
45806;SDS011;31507;51.494;7.518;2022-10-22T02:47:32;12.13;;;6.40;;
45806;SDS011;31507;51.494;7.518;2022-10-22T02:49:58;14.65;;;6.40;;
45806;SDS011;31507;51.494;7.518;2022-10-22T02:52:24;19.63;;;6.45;;
45806;SDS011;31507;51.494;7.518;2022-10-22T02:54:49;21.02;;;6.70;;
45806;SDS011;31507;51.494;7.518;2022-10-22T02:57:15;19.13;;;7.20;;
45806;SDS011;31507;51.494;7.518;2022-10-22T02:59:41;13.75;;;8.15;;
45806;SDS011;31507;51.494;7.518;2022-10-22T03:02:06;20.75;;;8.85;;
45806;SDS011;31507;51.494;7.518;2022-10-22T03:04:32;17.40;;;8.82;;
45806;SDS011;31507;51.494;7.518;2022-10-22T03:06:58;25.02;;;9.43;;
45806;SDS011;31507;51.494;7.518;2022-10-22T03:09:23;18.85;;;8.77;;
45806;SDS011;31507;51.494;7.518;2022-10-22T03:11:49;25.25;;;9.52;;
45806;SDS011;31507;51.494;7.518;2022-10-22T03:14:15;27.83;;;9.90;;
45806;SDS011;31507;51.494;7.518;2022-10-22T03:16:40;19.30;;;9.85;;
45806;SDS011;31507;51.494;7.518;2022-10-22T03:19:06;18.25;;;9.65;;
45806;SDS011;31507;51.494;7.518;2022-10-22T03:21:43;24.63;;;10.13;;
45806;SDS011;31507;51.494;7.518;2022-10-22T03:24:14;22.92;;;10.98;;
45806;SDS011;31507;51.494;7.518;2022-10-22T03:26:43;32.70;;;13.43;;
45806;SDS011;31507;51.494;7.518;2022-10-22T03:29:12;34.45;;;12.25;;
45806;SDS011;31507;51.494;7.518;2022-10-22T03:31:39;29.88;;;13.00;;
45806;SDS011;31507;51.494;7.518;2022-10-22T03:34:05;23.05;;;11.90;;
45806;SDS011;31507;51.494;7.518;2022-10-22T03:36:31;24.38;;;12.68;;
45806;SDS011;31507;51.494;7.518;2022-10-22T03:38:58;26.98;;;11.60;;
45806;SDS011;31507;51.494;7.518;2022-10-22T03:41:25;20.50;;;10.50;;
45806;SDS011;31507;51.494;7.518;2022-10-22T03:43:51;25.38;;;10.95;;
45806;SDS011;31507;51.494;7.518;2022-10-22T03:46:18;20.75;;;11.73;;
45806;SDS011;31507;51.494;7.518;2022-10-22T03:48:44;25.35;;;12.25;;
45806;SDS011;31507;51.494;7.518;2022-10-22T03:51:10;22.30;;;11.40;;
45806;SDS011;31507;51.494;7.518;2022-10-22T03:53:36;22.73;;;11.20;;
45806;SDS011;31507;51.494;7.518;2022-10-22T03:56:02;26.45;;;12.15;;
45806;SDS011;31507;51.494;7.518;2022-10-22T03:58:32;28.77;;;12.57;;
45806;SDS011;31507;51.494;7.518;2022-10-22T04:01:02;23.35;;;11.95;;
45806;SDS011;31507;51.494;7.518;2022-10-22T04:03:32;31.85;;;13.07;;
45806;SDS011;31507;51.494;7.518;2022-10-22T04:06:02;25.20;;;12.18;;
45806;SDS011;31507;51.494;7.518;2022-10-22T04:08:37;27.25;;;13.52;;
45806;SDS011;31507;51.494;7.518;2022-10-22T04:11:03;23.30;;;12.80;;
45806;SDS011;31507;51.494;7.518;2022-10-22T04:13:29;26.15;;;12.32;;
45806;SDS011;31507;51.494;7.518;2022-10-22T04:15:55;22.67;;;12.93;;
45806;SDS011;31507;51.494;7.518;2022-10-22T04:18:30;23.58;;;11.95;;
45806;SDS011;31507;51.494;7.518;2022-10-22T04:20:57;24.95;;;11.45;;
45806;SDS011;31507;51.494;7.518;2022-10-22T04:23:22;20.77;;;12.00;;
45806;SDS011;31507;51.494;7.518;2022-10-22T04:25:48;22.48;;;11.25;;
45806;SDS011;31507;51.494;7.518;2022-10-22T04:28:13;32.65;;;12.55;;
45806;SDS011;31507;51.494;7.518;2022-10-22T04:30:39;26.77;;;12.07;;
45806;SDS011;31507;51.494;7.518;2022-10-22T04:33:06;22.98;;;11.57;;
45806;SDS011;31507;51.494;7.518;2022-10-22T04:35:32;27.88;;;12.20;;
45806;SDS011;31507;51.494;7.518;2022-10-22T04:38:03;23.42;;;11.95;;
45806;SDS011;31507;51.494;7.518;2022-10-22T04:40:29;31.20;;;14.20;;
45806;SDS011;31507;51.494;7.518;2022-10-22T04:42:55;28.13;;;13.93;;
45806;SDS011;31507;51.494;7.518;2022-10-22T04:45:20;28.98;;;13.70;;
45806;SDS011;31507;51.494;7.518;2022-10-22T04:47:46;29.90;;;14.48;;
45806;SDS011;31507;51.494;7.518;2022-10-22T04:50:12;28.98;;;14.40;;
45806;SDS011;31507;51.494;7.518;2022-10-22T04:52:37;27.05;;;15.68;;
45806;SDS011;31507;51.494;7.518;2022-10-22T04:55:03;27.70;;;15.95;;
45806;SDS011;31507;51.494;7.518;2022-10-22T04:57:29;30.35;;;15.10;;
45806;SDS011;31507;51.494;7.518;2022-10-22T04:59:55;28.50;;;16.15;;
45806;SDS011;31507;51.494;7.518;2022-10-22T05:02:21;31.95;;;15.27;;
45806;SDS011;31507;51.494;7.518;2022-10-22T05:04:47;30.52;;;13.77;;
45806;SDS011;31507;51.494;7.518;2022-10-22T05:07:12;23.92;;;14.88;;
45806;SDS011;31507;51.494;7.518;2022-10-22T05:09:38;21.55;;;12.90;;
45806;SDS011;31507;51.494;7.518;2022-10-22T05:12:07;26.77;;;13.77;;
45806;SDS011;31507;51.494;7.518;2022-10-22T05:14:33;24.92;;;14.70;;
45806;SDS011;31507;51.494;7.518;2022-10-22T05:16:58;30.38;;;15.80;;
45806;SDS011;31507;51.494;7.518;2022-10-22T05:19:27;26.13;;;14.95;;
45806;SDS011;31507;51.494;7.518;2022-10-22T05:21:58;24.80;;;13.90;;
45806;SDS011;31507;51.494;7.518;2022-10-22T05:24:26;27.88;;;15.10;;
45806;SDS011;31507;51.494;7.518;2022-10-22T05:26:53;26.05;;;14.45;;
45806;SDS011;31507;51.494;7.518;2022-10-22T05:29:21;29.20;;;14.88;;
45806;SDS011;31507;51.494;7.518;2022-10-22T05:31:47;24.63;;;15.23;;
45806;SDS011;31507;51.494;7.518;2022-10-22T05:34:13;23.48;;;15.50;;
45806;SDS011;31507;51.494;7.518;2022-10-22T05:36:39;33.28;;;15.90;;
45806;SDS011;31507;51.494;7.518;2022-10-22T05:39:05;22.70;;;15.35;;
45806;SDS011;31507;51.494;7.518;2022-10-22T05:41:32;26.30;;;15.15;;
45806;SDS011;31507;51.494;7.518;2022-10-22T05:43:59;26.13;;;14.55;;
45806;SDS011;31507;51.494;7.518;2022-10-22T05:46:27;29.33;;;15.20;;
45806;SDS011;31507;51.494;7.518;2022-10-22T05:48:55;27.33;;;13.80;;
45806;SDS011;31507;51.494;7.518;2022-10-22T05:51:22;21.42;;;13.45;;
45806;SDS011;31507;51.494;7.518;2022-10-22T05:53:53;25.23;;;14.52;;
45806;SDS011;31507;51.494;7.518;2022-10-22T05:56:20;21.10;;;12.82;;
45806;SDS011;31507;51.494;7.518;2022-10-22T05:58:46;25.15;;;12.45;;
45806;SDS011;31507;51.494;7.518;2022-10-22T06:01:13;24.35;;;13.50;;
45806;SDS011;31507;51.494;7.518;2022-10-22T06:03:42;28.58;;;14.02;;
45806;SDS011;31507;51.494;7.518;2022-10-22T06:08:50;19.38;;;14.05;;
45806;SDS011;31507;51.494;7.518;2022-10-22T06:11:17;30.63;;;15.00;;
45806;SDS011;31507;51.494;7.518;2022-10-22T06:13:45;20.65;;;14.95;;
45806;SDS011;31507;51.494;7.518;2022-10-22T06:16:11;24.63;;;14.05;;
45806;SDS011;31507;51.494;7.518;2022-10-22T06:18:37;28.35;;;15.13;;
45806;SDS011;31507;51.494;7.518;2022-10-22T06:21:04;22.35;;;14.57;;
45806;SDS011;31507;51.494;7.518;2022-10-22T06:23:34;31.92;;;15.63;;
45806;SDS011;31507;51.494;7.518;2022-10-22T06:26:01;25.52;;;14.43;;
45806;SDS011;31507;51.494;7.518;2022-10-22T06:28:28;23.80;;;14.77;;
45806;SDS011;31507;51.494;7.518;2022-10-22T06:30:58;27.65;;;16.98;;
45806;SDS011;31507;51.494;7.518;2022-10-22T06:33:26;33.50;;;17.67;;
45806;SDS011;31507;51.494;7.518;2022-10-22T06:35:52;37.13;;;17.88;;
45806;SDS011;31507;51.494;7.518;2022-10-22T06:38:21;33.90;;;17.60;;
45806;SDS011;31507;51.494;7.518;2022-10-22T06:40:48;31.33;;;17.13;;
45806;SDS011;31507;51.494;7.518;2022-10-22T06:43:13;28.35;;;17.35;;
45806;SDS011;31507;51.494;7.518;2022-10-22T06:45:40;28.52;;;17.77;;
45806;SDS011;31507;51.494;7.518;2022-10-22T06:48:06;28.92;;;18.27;;
45806;SDS011;31507;51.494;7.518;2022-10-22T06:50:34;32.58;;;18.08;;
45806;SDS011;31507;51.494;7.518;2022-10-22T06:53:00;33.70;;;17.30;;
45806;SDS011;31507;51.494;7.518;2022-10-22T06:55:26;26.92;;;17.48;;
45806;SDS011;31507;51.494;7.518;2022-10-22T06:57:51;23.48;;;16.45;;
45806;SDS011;31507;51.494;7.518;2022-10-22T07:00:18;31.83;;;15.93;;
45806;SDS011;31507;51.494;7.518;2022-10-22T07:02:50;19.08;;;14.48;;
45806;SDS011;31507;51.494;7.518;2022-10-22T07:05:18;26.15;;;15.07;;
45806;SDS011;31507;51.494;7.518;2022-10-22T07:07:44;23.88;;;13.73;;
45806;SDS011;31507;51.494;7.518;2022-10-22T07:10:09;20.70;;;13.30;;
45806;SDS011;31507;51.494;7.518;2022-10-22T07:12:35;23.98;;;12.98;;
45806;SDS011;31507;51.494;7.518;2022-10-22T07:15:03;16.80;;;10.80;;
45806;SDS011;31507;51.494;7.518;2022-10-22T07:17:29;16.35;;;10.73;;
45806;SDS011;31507;51.494;7.518;2022-10-22T07:19:55;18.27;;;10.38;;
45806;SDS011;31507;51.494;7.518;2022-10-22T07:22:21;15.23;;;9.23;;
45806;SDS011;31507;51.494;7.518;2022-10-22T07:24:46;12.18;;;8.43;;
45806;SDS011;31507;51.494;7.518;2022-10-22T07:27:12;13.10;;;7.03;;
45806;SDS011;31507;51.494;7.518;2022-10-22T07:29:38;14.85;;;6.60;;
45806;SDS011;31507;51.494;7.518;2022-10-22T07:32:03;13.65;;;5.22;;
45806;SDS011;31507;51.494;7.518;2022-10-22T07:34:29;8.95;;;4.57;;
45806;SDS011;31507;51.494;7.518;2022-10-22T07:36:55;19.17;;;4.40;;
45806;SDS011;31507;51.494;7.518;2022-10-22T07:39:21;21.40;;;4.38;;
45806;SDS011;31507;51.494;7.518;2022-10-22T07:41:49;9.00;;;3.40;;
45806;SDS011;31507;51.494;7.518;2022-10-22T07:44:15;7.20;;;3.08;;
45806;SDS011;31507;51.494;7.518;2022-10-22T07:46:41;11.90;;;3.30;;
45806;SDS011;31507;51.494;7.518;2022-10-22T07:49:06;14.98;;;3.45;;
45806;SDS011;31507;51.494;7.518;2022-10-22T07:51:32;11.00;;;3.08;;
45806;SDS011;31507;51.494;7.518;2022-10-22T07:53:57;4.72;;;2.55;;
45806;SDS011;31507;51.494;7.518;2022-10-22T07:56:23;8.43;;;2.92;;
45806;SDS011;31507;51.494;7.518;2022-10-22T07:58:49;5.93;;;2.65;;
45806;SDS011;31507;51.494;7.518;2022-10-22T08:01:14;12.45;;;3.30;;
45806;SDS011;31507;51.494;7.518;2022-10-22T08:03:40;8.40;;;2.40;;
45806;SDS011;31507;51.494;7.518;2022-10-22T08:06:08;15.38;;;3.40;;
45806;SDS011;31507;51.494;7.518;2022-10-22T08:08:36;10.82;;;2.75;;
45806;SDS011;31507;51.494;7.518;2022-10-22T08:11:02;6.15;;;2.42;;
45806;SDS011;31507;51.494;7.518;2022-10-22T08:13:28;12.35;;;2.25;;
45806;SDS011;31507;51.494;7.518;2022-10-22T08:15:57;12.85;;;2.78;;
45806;SDS011;31507;51.494;7.518;2022-10-22T08:18:24;11.13;;;2.28;;
45806;SDS011;31507;51.494;7.518;2022-10-22T08:20:50;10.63;;;2.70;;
45806;SDS011;31507;51.494;7.518;2022-10-22T08:23:16;10.50;;;2.25;;
45806;SDS011;31507;51.494;7.518;2022-10-22T08:25:42;11.05;;;2.53;;
45806;SDS011;31507;51.494;7.518;2022-10-22T08:28:09;6.45;;;2.33;;
45806;SDS011;31507;51.494;7.518;2022-10-22T08:30:37;9.40;;;2.47;;
45806;SDS011;31507;51.494;7.518;2022-10-22T08:33:04;6.70;;;1.98;;
45806;SDS011;31507;51.494;7.518;2022-10-22T08:35:30;8.27;;;2.20;;
45806;SDS011;31507;51.494;7.518;2022-10-22T08:37:56;7.22;;;2.00;;
45806;SDS011;31507;51.494;7.518;2022-10-22T08:40:24;15.50;;;2.65;;
45806;SDS011;31507;51.494;7.518;2022-10-22T08:51:15;5.55;;;2.17;;
45806;SDS011;31507;51.494;7.518;2022-10-22T08:56:13;14.07;;;2.63;;
45806;SDS011;31507;51.494;7.518;2022-10-22T08:58:41;13.05;;;2.65;;
45806;SDS011;31507;51.494;7.518;2022-10-22T09:01:22;11.02;;;2.33;;
45806;SDS011;31507;51.494;7.518;2022-10-22T09:04:18;10.40;;;2.40;;
45806;SDS011;31507;51.494;7.518;2022-10-22T09:07:07;11.52;;;1.98;;
45806;SDS011;31507;51.494;7.518;2022-10-22T09:09:36;12.55;;;2.30;;
45806;SDS011;31507;51.494;7.518;2022-10-22T09:12:06;14.15;;;2.60;;
45806;SDS011;31507;51.494;7.518;2022-10-22T09:14:35;10.15;;;2.35;;
45806;SDS011;31507;51.494;7.518;2022-10-22T09:25:48;9.57;;;2.28;;
45806;SDS011;31507;51.494;7.518;2022-10-22T09:28:16;12.65;;;2.72;;
45806;SDS011;31507;51.494;7.518;2022-10-22T09:30:41;9.02;;;2.15;;
45806;SDS011;31507;51.494;7.518;2022-10-22T09:35:34;11.68;;;2.90;;
45806;SDS011;31507;51.494;7.518;2022-10-22T09:38:23;5.85;;;2.42;;
45806;SDS011;31507;51.494;7.518;2022-10-22T09:40:52;11.13;;;2.63;;
45806;SDS011;31507;51.494;7.518;2022-10-22T09:43:19;6.30;;;2.28;;
45806;SDS011;31507;51.494;7.518;2022-10-22T09:45:46;11.95;;;2.72;;
45806;SDS011;31507;51.494;7.518;2022-10-22T09:59:41;8.18;;;2.30;;
45806;SDS011;31507;51.494;7.518;2022-10-22T10:04:40;11.85;;;2.30;;
45806;SDS011;31507;51.494;7.518;2022-10-22T10:07:21;9.65;;;2.25;;
45806;SDS011;31507;51.494;7.518;2022-10-22T10:09:51;10.48;;;2.25;;
45806;SDS011;31507;51.494;7.518;2022-10-22T10:12:20;14.07;;;2.40;;
45806;SDS011;31507;51.494;7.518;2022-10-22T10:14:55;7.53;;;1.95;;
45806;SDS011;31507;51.494;7.518;2022-10-22T10:17:50;5.95;;;2.13;;
45806;SDS011;31507;51.494;7.518;2022-10-22T10:33:50;9.38;;;2.00;;
45806;SDS011;31507;51.494;7.518;2022-10-22T10:36:33;9.05;;;2.58;;
45806;SDS011;31507;51.494;7.518;2022-10-22T10:41:51;14.50;;;2.97;;
45806;SDS011;31507;51.494;7.518;2022-10-22T10:49:59;10.75;;;2.20;;
45806;SDS011;31507;51.494;7.518;2022-10-22T10:52:47;13.80;;;2.30;;
45806;SDS011;31507;51.494;7.518;2022-10-22T10:55:27;8.82;;;2.10;;
45806;SDS011;31507;51.494;7.518;2022-10-22T10:58:02;6.85;;;1.75;;
45806;SDS011;31507;51.494;7.518;2022-10-22T11:00:52;8.57;;;1.90;;
45806;SDS011;31507;51.494;7.518;2022-10-22T11:06:22;9.05;;;2.45;;
45806;SDS011;31507;51.494;7.518;2022-10-22T11:09:10;14.27;;;2.13;;
45806;SDS011;31507;51.494;7.518;2022-10-22T11:11:58;8.15;;;1.50;;
45806;SDS011;31507;51.494;7.518;2022-10-22T11:14:31;7.68;;;2.22;;
45806;SDS011;31507;51.494;7.518;2022-10-22T11:19:47;11.27;;;1.85;;
45806;SDS011;31507;51.494;7.518;2022-10-22T11:25:32;5.18;;;1.30;;
45806;SDS011;31507;51.494;7.518;2022-10-22T11:30:24;5.70;;;1.35;;
45806;SDS011;31507;51.494;7.518;2022-10-22T11:32:56;7.00;;;1.15;;
45806;SDS011;31507;51.494;7.518;2022-10-22T11:35:28;6.03;;;1.50;;
45806;SDS011;31507;51.494;7.518;2022-10-22T11:37:56;8.82;;;1.60;;
45806;SDS011;31507;51.494;7.518;2022-10-22T11:43:09;7.38;;;1.60;;
45806;SDS011;31507;51.494;7.518;2022-10-22T11:45:49;8.82;;;1.98;;
45806;SDS011;31507;51.494;7.518;2022-10-22T11:48:27;9.23;;;1.45;;
45806;SDS011;31507;51.494;7.518;2022-10-22T11:51:00;5.05;;;1.42;;
45806;SDS011;31507;51.494;7.518;2022-10-22T11:53:33;4.38;;;1.33;;
45806;SDS011;31507;51.494;7.518;2022-10-22T12:03:38;5.25;;;1.40;;
45806;SDS011;31507;51.494;7.518;2022-10-22T12:16:42;9.25;;;2.00;;
45806;SDS011;31507;51.494;7.518;2022-10-22T12:21:53;4.72;;;1.30;;
45806;SDS011;31507;51.494;7.518;2022-10-22T12:24:22;6.97;;;1.40;;
45806;SDS011;31507;51.494;7.518;2022-10-22T12:26:50;5.25;;;1.35;;
45806;SDS011;31507;51.494;7.518;2022-10-22T12:29:17;10.07;;;1.52;;
45806;SDS011;31507;51.494;7.518;2022-10-22T12:31:45;4.70;;;1.20;;
45806;SDS011;31507;51.494;7.518;2022-10-22T12:34:15;6.30;;;1.60;;
45806;SDS011;31507;51.494;7.518;2022-10-22T12:36:42;5.15;;;1.17;;
45806;SDS011;31507;51.494;7.518;2022-10-22T12:39:14;6.57;;;1.38;;
45806;SDS011;31507;51.494;7.518;2022-10-22T12:41:42;5.68;;;1.13;;
45806;SDS011;31507;51.494;7.518;2022-10-22T12:44:12;5.95;;;1.52;;
45806;SDS011;31507;51.494;7.518;2022-10-22T12:46:40;4.80;;;1.63;;
45806;SDS011;31507;51.494;7.518;2022-10-22T12:49:21;5.60;;;1.42;;
45806;SDS011;31507;51.494;7.518;2022-10-22T12:51:49;8.85;;;1.33;;
45806;SDS011;31507;51.494;7.518;2022-10-22T12:54:25;6.95;;;1.58;;
45806;SDS011;31507;51.494;7.518;2022-10-22T12:56:53;5.13;;;1.73;;
45806;SDS011;31507;51.494;7.518;2022-10-22T12:59:24;5.82;;;1.75;;
45806;SDS011;31507;51.494;7.518;2022-10-22T13:02:00;6.85;;;1.55;;
45806;SDS011;31507;51.494;7.518;2022-10-22T13:04:32;5.78;;;1.55;;
45806;SDS011;31507;51.494;7.518;2022-10-22T13:09:38;5.88;;;1.63;;
45806;SDS011;31507;51.494;7.518;2022-10-22T13:12:06;9.10;;;1.95;;
45806;SDS011;31507;51.494;7.518;2022-10-22T13:14:38;5.93;;;1.40;;
45806;SDS011;31507;51.494;7.518;2022-10-22T13:19:37;6.53;;;1.63;;
45806;SDS011;31507;51.494;7.518;2022-10-22T13:22:03;8.57;;;1.40;;
45806;SDS011;31507;51.494;7.518;2022-10-22T13:24:29;5.00;;;1.50;;
45806;SDS011;31507;51.494;7.518;2022-10-22T13:26:55;8.32;;;1.55;;
45806;SDS011;31507;51.494;7.518;2022-10-22T13:29:21;7.93;;;1.40;;
45806;SDS011;31507;51.494;7.518;2022-10-22T13:31:48;5.22;;;1.13;;
45806;SDS011;31507;51.494;7.518;2022-10-22T13:34:17;7.10;;;1.55;;
45806;SDS011;31507;51.494;7.518;2022-10-22T13:36:46;6.80;;;1.55;;
45806;SDS011;31507;51.494;7.518;2022-10-22T13:39:20;5.20;;;1.17;;
45806;SDS011;31507;51.494;7.518;2022-10-22T13:41:47;7.03;;;1.80;;
45806;SDS011;31507;51.494;7.518;2022-10-22T13:44:16;7.05;;;1.60;;
45806;SDS011;31507;51.494;7.518;2022-10-22T13:46:44;6.30;;;1.90;;
45806;SDS011;31507;51.494;7.518;2022-10-22T13:49:18;8.30;;;1.70;;
45806;SDS011;31507;51.494;7.518;2022-10-22T13:51:46;4.72;;;1.10;;
45806;SDS011;31507;51.494;7.518;2022-10-22T13:54:18;4.38;;;1.40;;
45806;SDS011;31507;51.494;7.518;2022-10-22T13:56:46;11.00;;;1.77;;
45806;SDS011;31507;51.494;7.518;2022-10-22T13:59:12;5.22;;;1.48;;
45806;SDS011;31507;51.494;7.518;2022-10-22T14:01:37;7.93;;;1.50;;
45806;SDS011;31507;51.494;7.518;2022-10-22T14:04:04;4.93;;;1.42;;
45806;SDS011;31507;51.494;7.518;2022-10-22T14:06:31;6.70;;;1.40;;
45806;SDS011;31507;51.494;7.518;2022-10-22T14:08:58;4.15;;;1.38;;
45806;SDS011;31507;51.494;7.518;2022-10-22T14:11:26;3.33;;;1.00;;
45806;SDS011;31507;51.494;7.518;2022-10-22T14:13:52;8.32;;;1.10;;
45806;SDS011;31507;51.494;7.518;2022-10-22T14:16:19;8.30;;;1.30;;
45806;SDS011;31507;51.494;7.518;2022-10-22T14:18:48;6.90;;;1.27;;
45806;SDS011;31507;51.494;7.518;2022-10-22T14:21:15;6.70;;;1.55;;
45806;SDS011;31507;51.494;7.518;2022-10-22T14:23:42;4.07;;;1.10;;
45806;SDS011;31507;51.494;7.518;2022-10-22T14:26:17;10.52;;;1.40;;
45806;SDS011;31507;51.494;7.518;2022-10-22T14:28:47;6.85;;;1.33;;
45806;SDS011;31507;51.494;7.518;2022-10-22T14:31:13;7.32;;;1.23;;
45806;SDS011;31507;51.494;7.518;2022-10-22T14:33:39;6.97;;;1.67;;
45806;SDS011;31507;51.494;7.518;2022-10-22T14:36:05;8.70;;;1.40;;
45806;SDS011;31507;51.494;7.518;2022-10-22T14:38:31;6.60;;;1.30;;
45806;SDS011;31507;51.494;7.518;2022-10-22T14:40:58;4.30;;;1.25;;
45806;SDS011;31507;51.494;7.518;2022-10-22T14:43:25;4.72;;;1.17;;
45806;SDS011;31507;51.494;7.518;2022-10-22T14:45:55;4.95;;;1.17;;
45806;SDS011;31507;51.494;7.518;2022-10-22T14:48:22;4.63;;;1.35;;
45806;SDS011;31507;51.494;7.518;2022-10-22T14:50:47;5.57;;;1.45;;
45806;SDS011;31507;51.494;7.518;2022-10-22T14:53:13;7.05;;;1.42;;
45806;SDS011;31507;51.494;7.518;2022-10-22T14:55:40;4.70;;;1.10;;
45806;SDS011;31507;51.494;7.518;2022-10-22T14:58:08;11.10;;;1.67;;
45806;SDS011;31507;51.494;7.518;2022-10-22T15:00:34;6.97;;;1.23;;
45806;SDS011;31507;51.494;7.518;2022-10-22T15:03:01;6.30;;;1.20;;
45806;SDS011;31507;51.494;7.518;2022-10-22T15:05:27;3.22;;;0.98;;
45806;SDS011;31507;51.494;7.518;2022-10-22T15:07:53;6.32;;;1.48;;
45806;SDS011;31507;51.494;7.518;2022-10-22T15:10:19;5.78;;;1.40;;
45806;SDS011;31507;51.494;7.518;2022-10-22T15:12:44;4.13;;;1.00;;
45806;SDS011;31507;51.494;7.518;2022-10-22T15:15:10;6.10;;;1.10;;
45806;SDS011;31507;51.494;7.518;2022-10-22T15:17:36;2.95;;;1.00;;
45806;SDS011;31507;51.494;7.518;2022-10-22T15:20:02;7.43;;;1.48;;
45806;SDS011;31507;51.494;7.518;2022-10-22T15:22:29;5.90;;;1.35;;
45806;SDS011;31507;51.494;7.518;2022-10-22T15:24:58;3.85;;;1.40;;
45806;SDS011;31507;51.494;7.518;2022-10-22T15:27:25;3.67;;;1.27;;
45806;SDS011;31507;51.494;7.518;2022-10-22T15:29:51;3.25;;;0.95;;
45806;SDS011;31507;51.494;7.518;2022-10-22T15:32:17;5.00;;;1.23;;
45806;SDS011;31507;51.494;7.518;2022-10-22T15:34:43;5.55;;;1.33;;
45806;SDS011;31507;51.494;7.518;2022-10-22T15:37:09;8.77;;;1.40;;
45806;SDS011;31507;51.494;7.518;2022-10-22T15:39:40;8.13;;;1.10;;
45806;SDS011;31507;51.494;7.518;2022-10-22T15:42:06;11.25;;;1.77;;
45806;SDS011;31507;51.494;7.518;2022-10-22T15:44:33;3.55;;;1.52;;
45806;SDS011;31507;51.494;7.518;2022-10-22T15:46:59;7.38;;;1.75;;
45806;SDS011;31507;51.494;7.518;2022-10-22T15:49:27;5.00;;;1.65;;
45806;SDS011;31507;51.494;7.518;2022-10-22T15:51:53;3.50;;;1.33;;
45806;SDS011;31507;51.494;7.518;2022-10-22T15:54:20;7.10;;;1.67;;
45806;SDS011;31507;51.494;7.518;2022-10-22T15:56:48;8.32;;;1.65;;
45806;SDS011;31507;51.494;7.518;2022-10-22T15:59:15;10.35;;;1.88;;
45806;SDS011;31507;51.494;7.518;2022-10-22T16:01:41;6.50;;;1.95;;
45806;SDS011;31507;51.494;7.518;2022-10-22T16:04:07;7.40;;;1.70;;
45806;SDS011;31507;51.494;7.518;2022-10-22T16:06:35;6.18;;;1.50;;
45806;SDS011;31507;51.494;7.518;2022-10-22T16:09:06;8.00;;;2.10;;
45806;SDS011;31507;51.494;7.518;2022-10-22T16:11:34;6.43;;;2.00;;
45806;SDS011;31507;51.494;7.518;2022-10-22T16:14:00;7.03;;;1.55;;
45806;SDS011;31507;51.494;7.518;2022-10-22T16:16:29;6.60;;;1.70;;
45806;SDS011;31507;51.494;7.518;2022-10-22T16:18:56;6.65;;;1.92;;
45806;SDS011;31507;51.494;7.518;2022-10-22T16:21:23;9.40;;;2.05;;
45806;SDS011;31507;51.494;7.518;2022-10-22T16:23:49;8.88;;;2.08;;
45806;SDS011;31507;51.494;7.518;2022-10-22T16:26:15;7.65;;;2.03;;
45806;SDS011;31507;51.494;7.518;2022-10-22T16:28:42;6.85;;;2.08;;
45806;SDS011;31507;51.494;7.518;2022-10-22T16:31:10;11.30;;;2.65;;
45806;SDS011;31507;51.494;7.518;2022-10-22T16:33:37;9.93;;;2.22;;
45806;SDS011;31507;51.494;7.518;2022-10-22T16:36:05;7.32;;;2.03;;
45806;SDS011;31507;51.494;7.518;2022-10-22T16:38:31;7.72;;;1.73;;
45806;SDS011;31507;51.494;7.518;2022-10-22T16:41:06;8.80;;;2.30;;
45806;SDS011;31507;51.494;7.518;2022-10-22T16:43:32;11.20;;;2.42;;
45806;SDS011;31507;51.494;7.518;2022-10-22T16:45:58;6.25;;;2.42;;
45806;SDS011;31507;51.494;7.518;2022-10-22T16:48:23;11.38;;;2.55;;
45806;SDS011;31507;51.494;7.518;2022-10-22T16:50:49;16.67;;;2.67;;
45806;SDS011;31507;51.494;7.518;2022-10-22T16:53:15;11.55;;;3.03;;
45806;SDS011;31507;51.494;7.518;2022-10-22T16:55:40;9.02;;;2.45;;